Proserpine Hamilton Isla, Australia

4:10 PM AEST on February 27, 2017 (GMT +1000)
Hamilton Island

Weather History for YBHM - February, 2013

Change the Weather History Date:

Tuesday, February 12, 2013

  Actual Average Record
Temperature  
Mean Temperature 80 °F -  
Max Temperature 84 °F - - ()
Min Temperature 77 °F - - ()
Cooling Degree Days 16    
Growing Degree Days 30 (Base 50)    
Moisture  
Dew Point 73 °F    
Average Humidity 77    
Maximum Humidity 89    
Minimum Humidity 64    
Precipitation  
Precipitation 0.02 in - - ()
Sea Level Pressure  
Sea Level Pressure 29.86 in    
Wind  
Wind Speed 18 mph ()    
Max Wind Speed 29 mph    
Max Gust Speed -    
T = Trace of Precipitation, MM = Missing Value Source: Averaged Metar Reports

Daily Weather History Graph

Daily Weather History Graph

Search for Another Location

Airport or City:

Trip Planner

Search our weather history database for the weather conditions in past years. The results will help you decide how hot, cold, wet, or windy it might be!

Date:

Astronomy

Feb. 12, 2013 Rise Set
Actual Time 5:53 AM AEST 6:42 PM AEST
Civil Twilight 5:30 AM AEST 7:05 PM AEST
Nautical Twilight 5:03 AM AEST 7:32 PM AEST
Astronomical Twilight 4:36 AM AEST 7:59 PM AEST
Moon 7:27 AM AEST (2/12) 7:52 PM AEST (2/12)
Length of Visible Light 13h 34m
Length of Day
12h 48m
Waxing Crescent, 4% of the Moon is Illuminated
Feb 12
Waxing Crescent
Feb 18
First Quarter
Feb 26
Full
Mar 5
Last Quarter
Mar 12
New

Hourly Weather History & Observations

Time (AEST) Temp. Heat Index Dew Point Humidity Pressure Visibility Wind Dir Wind Speed Gust Speed Precip Events Conditions
12:00 AM 80 °F - 73 °F 74% 29.89 in - ESE 16.1 mph - -  
12:00 AM 78.8 °F - 73.4 °F 83% 29.89 in - ESE 16.1 mph - N/A   Unknown
12:30 AM 78.8 °F - 73.4 °F 83% 29.89 in - ESE 17.3 mph - N/A   Unknown
1:00 AM 78.8 °F - 75.2 °F 89% 29.86 in - East 19.6 mph - N/A   Unknown
1:30 AM 78.8 °F - 73.4 °F 83% 29.86 in - ESE 19.6 mph - N/A   Unknown
2:00 AM 78.8 °F - 71.6 °F 78% 29.86 in - SE 20.7 mph - N/A   Unknown
2:30 AM 78.8 °F - 69.8 °F 74% 29.86 in - ESE 21.9 mph - N/A   Unknown
3:00 AM 79 °F - 69 °F 65% 29.86 in - ESE 20.7 mph - -  
3:00 AM 78.8 °F - 69.8 °F 74% 29.86 in - ESE 20.7 mph - N/A   Unknown
3:30 AM 78.8 °F - 69.8 °F 74% 29.86 in - SE 21.9 mph - N/A   Unknown
4:00 AM 78.8 °F - 69.8 °F 74% 29.86 in - ESE 19.6 mph - N/A   Unknown
4:30 AM 78.8 °F - 69.8 °F 74% 29.86 in - SE 21.9 mph - N/A   Unknown
5:00 AM 78.8 °F - 69.8 °F 74% 29.86 in - ESE 21.9 mph - N/A   Unknown
5:30 AM 78.8 °F - 69.8 °F 74% 29.86 in - SE 19.6 mph - N/A   Unknown
6:00 AM 79 °F - 69 °F 65% 29.88 in - SE 19.6 mph - -  
6:00 AM 78.8 °F - 69.8 °F 74% 29.89 in - SE 19.6 mph - N/A   Unknown
6:30 AM 78.8 °F - 68.0 °F 69% 29.89 in - SE 20.7 mph - N/A   Unknown
7:00 AM 80.6 °F 83.9 °F 69.8 °F 70% 29.89 in - SE 17.3 mph - N/A   Unknown
7:30 AM 82.4 °F 86.3 °F 69.8 °F 66% 29.89 in - SE 18.4 mph - N/A   Unknown
9:00 AM 82 °F - 74 °F 70% 29.90 in - SSE 16.1 mph - -  
9:00 AM 82.4 °F 88.2 °F 73.4 °F 74% 29.89 in - SSE 16.1 mph - N/A   Unknown
9:30 AM 80.6 °F 85.4 °F 73.4 °F 79% 29.89 in - SSE 15.0 mph - N/A   Unknown
10:00 AM 82.4 °F 88.2 °F 73.4 °F 74% 29.89 in - SSE 17.3 mph - N/A   Unknown
10:30 AM 80.6 °F 86.2 °F 75.2 °F 84% 29.89 in - SSE 15.0 mph - N/A   Unknown
11:00 AM 80.6 °F 86.2 °F 75.2 °F 84% 29.89 in - SSE 15.0 mph - N/A   Unknown
11:30 AM 80.6 °F 85.4 °F 73.4 °F 79% 29.89 in - SSE 13.8 mph - N/A   Unknown
12:00 PM 83 °F - 73 °F 64% 29.88 in - SE 10.4 mph - -  
12:00 PM 84.2 °F 90.9 °F 73.4 °F 70% 29.89 in - SE 10.4 mph - N/A   Unknown
12:22 PM 82.4 °F 89.5 °F 75.2 °F 79% 29.86 in - SSE 24.2 mph - N/A   Unknown
12:30 PM 80.6 °F 86.2 °F 75.2 °F 84% 29.86 in - SSE 24.2 mph - N/A   Unknown
1:00 PM 80.6 °F 85.4 °F 73.4 °F 79% 29.86 in - SSE 24.2 mph - N/A   Unknown
1:30 PM 82.4 °F 89.5 °F 75.2 °F 79% 29.86 in - SSE 24.2 mph - N/A   Unknown
2:00 PM 82.4 °F 90.9 °F 77.0 °F 84% 29.86 in - SSE 25.3 mph - N/A   Unknown
2:30 PM 82.4 °F 89.5 °F 75.2 °F 79% 29.83 in - SSE 20.7 mph - N/A   Unknown
3:00 PM 83 °F - 74 °F 69% 29.83 in - SE 23.0 mph - -  
3:00 PM 84.2 °F 92.3 °F 75.2 °F 74% 29.83 in - SE 23.0 mph - N/A   Unknown
3:30 PM 84.2 °F 92.3 °F 75.2 °F 74% 29.83 in - SE 23.0 mph - N/A   Unknown
4:00 PM 82.4 °F 88.2 °F 73.4 °F 74% 29.83 in - SE 24.2 mph - N/A   Unknown
4:30 PM 82.4 °F 88.2 °F 73.4 °F 74% 29.83 in - SE 24.2 mph - N/A   Unknown
5:00 PM 82.4 °F 88.2 °F 73.4 °F 74% 29.83 in - SE 24.2 mph - N/A   Unknown
5:30 PM 80.6 °F 86.2 °F 75.2 °F 84% 29.83 in - SE 24.2 mph - N/A   Unknown
6:00 PM 81 °F - 74 °F 73% 29.83 in - SE 27.6 mph - -  
6:00 PM 80.6 °F 85.4 °F 73.4 °F 79% 29.83 in - SE 27.6 mph - N/A   Unknown
6:30 PM 80.6 °F 85.4 °F 73.4 °F 79% 29.83 in - ESE 24.2 mph - N/A   Unknown
7:00 PM 80.6 °F 85.4 °F 73.4 °F 79% 29.83 in - SE 20.7 mph - N/A   Unknown
7:30 PM 80.6 °F 85.4 °F 73.4 °F 79% 29.83 in - SE 23.0 mph - N/A   Unknown
8:00 PM 80.6 °F 87.1 °F 77.0 °F 89% 29.86 in - ESE 23.0 mph - N/A   Unknown
8:30 PM 80.6 °F 86.2 °F 75.2 °F 84% 29.86 in - ESE 25.3 mph - N/A   Unknown
9:00 PM 81 °F - 75 °F 78% 29.86 in - ESE 24.2 mph - -  
9:00 PM 80.6 °F 86.2 °F 75.2 °F 84% 29.86 in - ESE 24.2 mph - N/A   Unknown
9:30 PM 80.6 °F 86.2 °F 75.2 °F 84% 29.86 in - ESE 23.0 mph - N/A   Unknown
10:00 PM 80.6 °F 86.2 °F 75.2 °F 84% 29.86 in - SE 21.9 mph - N/A   Unknown
10:30 PM 80.6 °F 86.2 °F 75.2 °F 84% 29.86 in - SE 24.2 mph - N/A   Unknown
11:00 PM 80.6 °F 86.2 °F 75.2 °F 84% 29.86 in - SE 24.2 mph - N/A   Unknown
11:30 PM 80.6 °F 86.2 °F 75.2 °F 84% 29.86 in - SE 28.8 mph - N/A   Unknown